Time;durP1;ratioP1;P1;durP2;ratioP2;P2;SDS_P1;SDS_P2;PMS_P1;PMS_P2;Temp;Humidity;BMP_temperature;BMP_pressure;BME280_temperature;BME280_humidity;BME280_pressure;Samples;Min_cycle;Max_cycle;Signal;HPM_P1;HPM_P2
2022/12/17 13:06:53;;;;;;;2.15;2.03;;;0.10;99.90;;;;;;5008863;28;22059;-81
2022/12/17 13:09:24;;;;;;;8.73;2.35;;;0.20;99.90;;;;;;4996718;28;20064;-79
2022/12/17 13:11:59;;;;;;;1.67;1.58;;;0.40;99.90;;;;;;5013456;28;20054;-83
2022/12/17 13:14:52;;;;;;;0.90;0.90;;;0.10;99.90;;;;;;5022897;28;20045;-79
2022/12/17 13:17:31;;;;;;;1.67;1.38;;;0.10;99.90;;;;;;5002035;28;20049;-79
2022/12/17 13:19:56;;;;;;;1.02;1.02;;;0.10;99.90;;;;;;5042724;28;20087;-80
2022/12/17 13:22:22;;;;;;;1.20;1.20;;;0.10;99.90;;;;;;5003833;28;20063;-79
2022/12/17 13:24:51;;;;;;;1.98;1.88;;;0.10;99.90;;;;;;5008956;28;20049;-78
2022/12/17 13:27:35;;;;;;;1.05;1.02;;;0.20;99.90;;;;;;5007529;28;20095;-79
2022/12/17 13:30:15;;;;;;;2.70;2.50;;;0.20;99.90;;;;;;5005430;28;20124;-78
2022/12/17 13:33:27;;;;;;;0.82;0.82;;;-0.40;99.90;;;;;;5005136;28;20100;-78
2022/12/17 13:36:01;;;;;;;3.58;1.48;;;0.20;99.90;;;;;;5036950;28;20045;-77
2022/12/17 13:38:35;;;;;;;1.38;1.33;;;0.10;99.90;;;;;;5042294;28;20128;-78
2022/12/17 13:41:13;;;;;;;1.00;1.00;;;0.00;99.90;;;;;;5009742;28;20030;-78
2022/12/17 13:43:45;;;;;;;1.42;1.33;;;-0.10;99.90;;;;;;5051118;28;20091;-78
2022/12/17 13:46:27;;;;;;;1.50;1.45;;;-0.10;99.90;;;;;;5051990;28;20042;-78
2022/12/17 13:49:05;;;;;;;3.53;3.22;;;-0.10;99.90;;;;;;5013580;28;20044;-78
2022/12/17 13:51:33;;;;;;;4.80;2.13;;;-0.20;99.90;;;;;;5021144;28;20045;-78
2022/12/17 13:54:02;;;;;;;0.98;0.98;;;-0.20;99.90;;;;;;5001643;28;20060;-78
2022/12/17 13:56:36;;;;;;;1.58;1.48;;;-0.20;99.90;;;;;;5003748;28;20410;-79
2022/12/17 13:59:04;;;;;;;1.77;1.60;;;-0.20;99.90;;;;;;5005238;28;20042;-79
2022/12/17 14:01:31;;;;;;;0.80;0.80;;;0.20;99.90;;;;;;5008677;28;20060;-78
2022/12/17 14:03:59;;;;;;;1.40;1.38;;;0.00;99.90;;;;;;5017048;28;20100;-79
2022/12/17 14:06:33;;;;;;;2.50;2.40;;;0.30;99.90;;;;;;4999894;28;20041;-79
2022/12/17 14:08:59;;;;;;;1.08;1.08;;;0.00;99.90;;;;;;5032514;28;20177;-78
2022/12/17 14:14:31;;;;;;;2.15;2.05;;;0.10;99.90;;;;;;5016331;28;20049;-78
2022/12/17 14:16:57;;;;;;;2.00;1.90;;;0.10;99.90;;;;;;5001848;28;20049;-79
2022/12/17 14:19:23;;;;;;;1.45;1.35;;;0.00;99.90;;;;;;5018886;28;20049;-79
2022/12/17 14:21:50;;;;;;;1.48;1.40;;;0.00;99.90;;;;;;5035505;28;20041;-79
2022/12/17 14:24:19;;;;;;;2.65;2.55;;;-0.10;99.90;;;;;;5011808;28;20073;-79
2022/12/17 14:26:55;;;;;;;2.17;2.08;;;-0.10;99.90;;;;;;5019145;28;20483;-79
2022/12/17 14:29:23;;;;;;;0.80;0.80;;;-0.20;99.90;;;;;;5001873;28;20131;-79
2022/12/17 14:31:57;;;;;;;0.80;0.80;;;-0.30;99.90;;;;;;5018053;28;20100;-79
2022/12/17 14:34:23;;;;;;;1.60;1.50;;;-0.40;99.90;;;;;;5024584;28;20053;-78
2022/12/17 14:36:58;;;;;;;4.75;3.63;;;-0.10;99.90;;;;;;5002344;28;21167;-79
2022/12/17 14:39:29;;;;;;;2.38;2.25;;;-0.60;99.90;;;;;;5034834;28;20049;-79
2022/12/17 14:42:25;;;;;;;1.08;1.08;;;-0.60;99.90;;;;;;5033822;28;20084;-79
2022/12/17 14:45:13;;;;;;;0.90;0.90;;;-0.60;99.90;;;;;;5017420;28;20064;-78
2022/12/17 14:47:50;;;;;;;1.38;1.35;;;-0.70;99.90;;;;;;5012186;28;20057;-78
2022/12/17 14:50:16;;;;;;;0.85;0.85;;;-0.80;99.90;;;;;;5018173;28;20050;-79
2022/12/17 14:52:43;;;;;;;1.05;1.05;;;-0.90;99.90;;;;;;5015628;28;20042;-78
2022/12/17 14:55:27;;;;;;;3.95;1.95;;;1.20;99.90;;;;;;5032735;28;20053;-78
2022/12/17 14:58:04;;;;;;;3.15;2.05;;;-1.10;99.90;;;;;;5000168;28;20121;-78
2022/12/17 15:00:30;;;;;;;0.65;0.65;;;-1.20;99.90;;;;;;5014648;28;20044;-79
2022/12/17 15:02:56;;;;;;;2.00;1.90;;;-1.20;99.90;;;;;;5016471;28;20045;-78
2022/12/17 15:05:22;;;;;;;1.77;1.67;;;-1.30;99.90;;;;;;5003177;28;20060;-78
2022/12/17 15:07:47;;;;;;;0.80;0.80;;;-1.30;99.90;;;;;;5017300;28;21832;-78
2022/12/17 15:10:17;;;;;;;2.60;2.50;;;-1.40;99.90;;;;;;5017007;28;20360;-78
2022/12/17 15:12:43;;;;;;;1.00;1.00;;;0.20;99.90;;;;;;5036728;28;20125;-78
2022/12/17 15:15:14;;;;;;;0.52;0.52;;;-1.50;99.90;;;;;;5010932;28;20036;-78
2022/12/17 15:17:41;;;;;;;1.27;1.27;;;-1.50;99.90;;;;;;5032967;28;20118;-79
2022/12/17 15:20:15;;;;;;;0.82;0.82;;;-1.60;99.90;;;;;;5034191;28;20038;-79
2022/12/17 15:22:41;;;;;;;0.90;0.90;;;-1.60;99.90;;;;;;5020926;28;20049;-79
2022/12/17 15:25:14;;;;;;;0.80;0.80;;;-1.60;99.90;;;;;;5007280;28;20038;-79
2022/12/17 15:27:41;;;;;;;1.05;1.05;;;-1.60;99.90;;;;;;5036994;28;20049;-79
2022/12/17 15:30:12;;;;;;;1.33;1.30;;;-1.70;99.90;;;;;;5014184;28;20438;-79
2022/12/17 15:32:38;;;;;;;4.47;2.35;;;-1.80;99.90;;;;;;5015322;28;20049;-79
2022/12/17 15:35:04;;;;;;;1.63;1.52;;;-1.80;99.90;;;;;;5015337;28;20088;-79
2022/12/17 15:37:29;;;;;;;;;;;-1.80;99.90;;;;;;5011505;28;20132;-79
2022/12/17 15:39:55;;;;;;;0.80;0.80;;;-1.80;99.90;;;;;;5008968;28;20716;-79
2022/12/17 15:45:06;;;;;;;1.02;1.02;;;-2.00;99.90;;;;;;5040398;28;20053;-79
2022/12/17 15:47:31;;;;;;;0.80;0.80;;;-2.00;99.90;;;;;;5016236;28;20048;-79
2022/12/17 15:49:57;;;;;;;0.93;0.93;;;-2.00;99.90;;;;;;5049435;28;20632;-79
2022/12/17 15:52:22;;;;;;;1.88;1.77;;;-2.00;99.90;;;;;;4999933;28;20041;-78
2022/12/17 15:54:48;;;;;;;1.58;1.48;;;-2.00;99.90;;;;;;5021361;28;20088;-78
2022/12/17 15:57:14;;;;;;;1.15;1.15;;;-2.10;99.90;;;;;;5010813;28;20467;-78
2022/12/17 15:59:40;;;;;;;1.08;1.08;;;-2.10;99.90;;;;;;5008626;28;20068;-78
2022/12/17 16:02:06;;;;;;;0.85;0.85;;;-2.20;99.90;;;;;;5002918;28;20041;-79
2022/12/17 16:04:31;;;;;;;1.20;1.20;;;-2.20;99.90;;;;;;5007032;28;20046;-78
2022/12/17 16:07:04;;;;;;;2.20;2.10;;;-2.20;99.90;;;;;;5002321;28;21162;-79
2022/12/17 16:09:30;;;;;;;0.70;0.70;;;-2.20;99.90;;;;;;5035393;28;20057;-78
2022/12/17 16:11:56;;;;;;;1.00;1.00;;;-2.20;99.90;;;;;;5004325;28;20144;-79
2022/12/17 16:14:22;;;;;;;;;;;-2.30;99.90;;;;;;5001140;28;20055;-79
2022/12/17 16:16:48;;;;;;;4.47;4.10;;;-2.30;99.90;;;;;;5011553;28;19961;-79
2022/12/17 16:19:13;;;;;;;3.50;3.20;;;-2.30;99.90;;;;;;5015077;28;20045;-79
2022/12/17 16:21:39;;;;;;;;;;;-2.40;99.90;;;;;;4992241;28;20049;-78
2022/12/17 16:24:05;;;;;;;1.63;1.52;;;-2.30;99.90;;;;;;5029555;28;21612;-79
2022/12/17 16:26:30;;;;;;;;;;;-2.40;99.90;;;;;;5022479;28;20049;-79
2022/12/17 16:28:57;;;;;;;5.68;2.28;;;-2.40;99.90;;;;;;4989097;28;19920;-79
2022/12/17 16:31:23;;;;;;;0.80;0.80;;;-2.40;99.90;;;;;;5033227;28;20080;-80
2022/12/17 16:33:49;;;;;;;1.00;1.00;;;-2.40;99.90;;;;;;5020802;28;20454;-80
2022/12/17 16:36:21;;;;;;;0.90;0.90;;;-2.40;99.90;;;;;;5031784;28;21467;-80
2022/12/17 16:38:52;;;;;;;1.17;1.17;;;-2.50;99.90;;;;;;5007452;28;20040;-80
2022/12/17 16:41:19;;;;;;;0.90;0.90;;;-2.50;99.90;;;;;;5005594;28;20043;-80
2022/12/17 16:43:46;;;;;;;3.25;3.10;;;-2.60;99.90;;;;;;5011895;28;20571;-79
2022/12/17 16:46:26;;;;;;;1.02;1.02;;;-2.60;99.90;;;;;;5012541;28;20073;-79
2022/12/17 16:48:52;;;;;;;0.70;0.70;;;-2.60;99.90;;;;;;5023344;28;20383;-79
2022/12/17 16:51:18;;;;;;;;;;;-2.60;99.90;;;;;;5021940;28;20049;-79
2022/12/17 16:53:44;;;;;;;1.83;1.73;;;-2.60;99.90;;;;;;5012897;28;19921;-79
2022/12/17 16:56:15;;;;;;;2.85;2.17;;;-2.60;99.90;;;;;;5019264;28;20124;-80
2022/12/17 16:58:40;;;;;;;1.65;1.42;;;-2.70;99.90;;;;;;4993154;28;20051;-80
2022/12/17 17:01:06;;;;;;;0.88;0.88;;;-2.70;99.90;;;;;;5012571;28;20041;-80
2022/12/17 17:03:32;;;;;;;0.80;0.80;;;-2.70;99.90;;;;;;5017140;28;20129;-80
2022/12/17 17:06:02;;;;;;;1.20;1.20;;;-2.70;99.90;;;;;;5032674;28;20037;-80
2022/12/17 17:08:29;;;;;;;1.08;1.08;;;-2.80;99.90;;;;;;5041129;28;20038;-78
2022/12/17 17:10:55;;;;;;;3.25;2.95;;;-2.80;99.90;;;;;;5006853;28;20143;-78
2022/12/17 17:13:20;;;;;;;0.80;0.80;;;-2.80;99.90;;;;;;5022487;28;20073;-79
2022/12/17 17:15:46;;;;;;;2.58;2.40;;;-2.80;99.90;;;;;;5054511;28;21688;-79
2022/12/17 17:18:12;;;;;;;1.63;1.52;;;-4.00;99.90;;;;;;5034819;28;20561;-79
2022/12/17 17:20:37;;;;;;;0.90;0.90;;;-2.60;99.90;;;;;;5021155;28;20048;-79
2022/12/17 17:23:03;;;;;;;;;;;-2.90;99.90;;;;;;5004921;28;20041;-79
2022/12/17 17:25:28;;;;;;;1.70;1.63;;;-3.00;99.90;;;;;;4998764;28;19925;-78
2022/12/17 17:27:54;;;;;;;;;;;-2.90;99.90;;;;;;5007018;28;20049;-80
2022/12/17 17:30:23;;;;;;;1.50;1.40;;;-3.00;99.90;;;;;;5019418;28;20707;-80
2022/12/17 17:32:49;;;;;;;1.10;1.10;;;-3.00;99.90;;;;;;5025977;28;20043;-79
2022/12/17 17:35:15;;;;;;;1.60;1.50;;;-3.00;99.90;;;;;;5007960;28;20360;-79
2022/12/17 17:37:40;;;;;;;;;;;-3.00;99.90;;;;;;5054840;28;20120;-80
2022/12/17 17:40:10;;;;;;;4.07;3.47;;;-3.00;99.90;;;;;;5022175;28;19922;-80
2022/12/17 17:42:36;;;;;;;1.20;1.20;;;-3.00;99.90;;;;;;5038407;28;20053;-79
2022/12/17 17:45:02;;;;;;;;;;;-3.00;99.90;;;;;;5002348;28;20950;-80
2022/12/17 17:47:28;;;;;;;2.85;2.75;;;-3.00;99.90;;;;;;5015237;28;19921;-79
2022/12/17 17:49:54;;;;;;;2.60;2.50;;;-3.00;99.90;;;;;;5031228;28;20425;-80
2022/12/17 17:52:20;;;;;;;;;;;-3.00;99.90;;;;;;5013392;28;20053;-79
2022/12/17 17:54:46;;;;;;;0.90;0.90;;;-3.00;99.90;;;;;;5018559;28;20330;-79
2022/12/17 17:57:11;;;;;;;;;;;-3.00;99.90;;;;;;5026530;28;20042;-79
2022/12/17 17:59:40;;;;;;;1.75;1.65;;;-3.10;99.90;;;;;;5015557;28;19932;-79
2022/12/17 18:02:08;;;;;;;6.43;5.78;;;-3.10;99.90;;;;;;5035834;28;20517;-80
2022/12/17 18:04:34;;;;;;;1.00;1.00;;;-3.10;99.90;;;;;;5025660;28;20106;-80
2022/12/17 18:06:59;;;;;;;;;;;-3.10;99.90;;;;;;5008897;28;20049;-80
2022/12/17 18:09:27;;;;;;;0.95;0.95;;;-3.20;99.90;;;;;;5017969;28;19936;-79
2022/12/17 18:11:52;;;;;;;0.90;0.90;;;-3.20;99.90;;;;;;5012118;28;20065;-81
2022/12/17 18:14:18;;;;;;;;;;;-3.20;99.90;;;;;;5013030;28;20087;-80
2022/12/17 18:16:46;;;;;;;1.83;1.73;;;-3.20;99.90;;;;;;5031723;28;19921;-81
2022/12/17 18:19:11;;;;;;;1.00;1.00;;;-3.20;99.90;;;;;;5015862;28;20716;-81
2022/12/17 18:21:37;;;;;;;;;;;-3.30;99.90;;;;;;5016343;28;20049;-80
2022/12/17 18:24:06;;;;;;;1.20;1.20;;;-3.30;99.90;;;;;;5019363;28;19920;-80
2022/12/17 18:26:36;;;;;;;1.65;1.55;;;-3.30;99.90;;;;;;5014092;28;20506;-80
2022/12/17 18:29:09;;;;;;;1.27;1.17;;;-2.30;99.90;;;;;;5028134;28;20033;-78
2022/12/17 18:31:35;;;;;;;1.02;1.02;;;-3.40;99.90;;;;;;5029229;28;20060;-81
2022/12/17 18:34:01;;;;;;;;;;;-3.40;99.90;;;;;;5012277;28;20041;-80
2022/12/17 18:36:29;;;;;;;0.70;0.70;;;-3.40;99.90;;;;;;5013368;28;19927;-80
2022/12/17 18:39:02;;;;;;;1.95;1.85;;;-1.50;99.90;;;;;;5045108;28;20037;-80
2022/12/17 18:44:15;;;;;;;1.02;1.02;;;-3.40;99.90;;;;;;5009936;28;20052;-80
2022/12/17 18:46:41;;;;;;;3.80;3.20;;;-3.40;99.90;;;;;;5009318;28;20570;-80
2022/12/17 18:49:10;;;;;;;1.05;1.05;;;-3.40;99.90;;;;;;5004913;28;20037;-80
2022/12/17 18:51:37;;;;;;;2.75;2.55;;;-3.40;99.90;;;;;;5032143;28;21679;-80
2022/12/17 18:54:07;;;;;;;1.73;1.63;;;-3.50;99.90;;;;;;5022636;28;20113;-80
2022/12/17 18:56:34;;;;;;;2.00;1.90;;;-3.50;99.90;;;;;;5018710;28;20041;-80
2022/12/17 18:59:01;;;;;;;2.83;2.13;;;-3.40;99.90;;;;;;5002078;28;20119;-80
2022/12/17 19:01:32;;;;;;;1.45;1.35;;;-3.40;99.90;;;;;;5003557;28;20612;-80
2022/12/17 19:04:05;;;;;;;1.33;1.27;;;-3.40;99.90;;;;;;5013757;28;20038;-79
2022/12/17 19:06:34;;;;;;;1.77;1.67;;;-3.40;99.90;;;;;;5003882;28;20043;-80
2022/12/17 19:09:01;;;;;;;1.02;1.02;;;-3.40;99.90;;;;;;5016757;28;20091;-80
2022/12/17 19:11:31;;;;;;;0.80;0.80;;;-3.40;99.90;;;;;;5012641;28;20691;-79
2022/12/17 19:13:57;;;;;;;3.88;3.53;;;-3.40;99.90;;;;;;5002232;28;20056;-79
2022/12/17 19:16:23;;;;;;;;;;;-3.50;99.90;;;;;;4995967;28;20042;-79
2022/12/17 19:19:09;;;;;;;0.80;0.80;;;-3.40;99.90;;;;;;5030777;28;20099;-79
2022/12/17 19:21:35;;;;;;;0.87;0.87;;;-3.30;99.90;;;;;;5008914;28;20034;-79
2022/12/17 19:24:02;;;;;;;;;;;-3.50;99.90;;;;;;5033322;28;20056;-79
2022/12/17 19:26:29;;;;;;;0.90;0.90;;;-3.50;99.90;;;;;;5003432;28;20036;-79
2022/12/17 19:28:56;;;;;;;1.10;1.10;;;-3.50;99.90;;;;;;5019106;28;20141;-79
2022/12/17 19:31:24;;;;;;;0.82;0.82;;;-3.50;99.90;;;;;;5019169;28;20383;-79
2022/12/17 19:33:53;;;;;;;5.70;5.47;;;-3.50;99.90;;;;;;5021002;28;20081;-79
2022/12/17 19:36:20;;;;;;;3.17;2.88;;;-3.40;99.90;;;;;;5053270;28;20077;-79
2022/12/17 19:38:49;;;;;;;1.05;1.05;;;-3.40;99.90;;;;;;5018106;28;20454;-79
2022/12/17 19:41:17;;;;;;;1.05;1.05;;;-3.40;99.90;;;;;;5020390;28;20041;-79
2022/12/17 19:43:45;;;;;;;2.28;2.08;;;-3.40;99.90;;;;;;5005770;28;20046;-79
2022/12/17 19:46:13;;;;;;;0.98;0.98;;;-3.40;99.90;;;;;;5005153;28;20770;-79
2022/12/17 19:48:40;;;;;;;2.40;2.30;;;-3.30;99.90;;;;;;4992853;28;20045;-79
2022/12/17 19:51:08;;;;;;;3.47;3.28;;;-3.40;99.90;;;;;;5014536;28;20054;-79
2022/12/17 19:53:36;;;;;;;3.25;3.10;;;-3.30;99.90;;;;;;5039753;28;21743;-79
2022/12/17 19:56:12;;;;;;;4.60;2.53;;;-3.30;99.90;;;;;;5038903;28;20498;-79
2022/12/17 19:58:39;;;;;;;2.72;2.60;;;-3.30;99.90;;;;;;5005012;28;20147;-79
2022/12/17 20:01:14;;;;;;;2.42;2.33;;;-3.40;99.90;;;;;;5016326;28;20041;-79
2022/12/17 20:03:41;;;;;;;3.80;3.60;;;-3.40;99.90;;;;;;5017163;28;20045;-79
2022/12/17 20:06:08;;;;;;;0.95;0.95;;;-3.40;99.90;;;;;;5020968;28;20052;-79
2022/12/17 20:08:34;;;;;;;0.70;0.70;;;-3.40;99.90;;;;;;5039678;28;20549;-79
2022/12/17 20:11:02;;;;;;;2.08;1.98;;;-3.40;99.90;;;;;;5002910;28;20791;-79
2022/12/17 20:13:27;;;;;;;0.73;0.73;;;-3.40;99.90;;;;;;4987360;28;20087;-79
2022/12/17 20:16:00;;;;;;;;;;;-3.40;99.90;;;;;;4999795;28;20041;-78
2022/12/17 20:18:26;;;;;;;1.98;1.88;;;-3.40;99.90;;;;;;5036479;28;19928;-79
2022/12/17 20:20:51;;;;;;;;;;;-3.40;99.90;;;;;;5033293;28;20041;-78
2022/12/17 20:23:17;;;;;;;3.38;3.22;;;-3.40;99.90;;;;;;5014321;28;20000;-79
2022/12/17 20:25:42;;;;;;;;;;;-3.40;99.90;;;;;;5035918;28;20045;-79
2022/12/17 20:28:08;;;;;;;2.15;1.92;;;-3.40;99.90;;;;;;5007848;28;19930;-79
2022/12/17 20:30:34;;;;;;;1.65;1.58;;;-3.50;99.90;;;;;;5006956;28;20053;-79
2022/12/17 20:32:59;;;;;;;2.15;2.05;;;-3.50;99.90;;;;;;5001998;28;20100;-78
2022/12/17 20:35:25;;;;;;;8.07;4.32;;;-3.50;99.90;;;;;;5008257;28;20137;-78
2022/12/17 20:37:50;;;;;;;1.75;1.65;;;-3.50;99.90;;;;;;5009031;28;20123;-79
2022/12/17 20:40:16;;;;;;;;;;;-3.60;99.90;;;;;;5011222;28;20056;-78
2022/12/17 20:42:42;;;;;;;0.90;0.90;;;-3.60;99.90;;;;;;5039296;28;20719;-78
2022/12/17 20:45:08;;;;;;;1.05;1.05;;;-3.60;99.90;;;;;;4996757;28;20047;-78
2022/12/17 20:47:33;;;;;;;;;;;-3.70;99.90;;;;;;5008924;28;20111;-78
2022/12/17 20:49:59;;;;;;;2.80;2.35;;;-3.70;99.90;;;;;;5018304;28;19928;-78
2022/12/17 20:52:24;;;;;;;0.77;0.77;;;-3.70;99.90;;;;;;5007454;28;20050;-78
2022/12/17 20:54:50;;;;;;;2.45;2.35;;;-3.60;99.90;;;;;;5005160;28;20082;-79
2022/12/17 20:57:16;;;;;;;;;;;-3.60;99.90;;;;;;5016706;28;20033;-78
2022/12/17 20:59:42;;;;;;;3.50;3.28;;;-3.60;99.90;;;;;;5007610;28;20420;-79
2022/12/17 21:02:08;;;;;;;;;;;-3.60;99.90;;;;;;5005871;28;20056;-79
2022/12/17 21:04:34;;;;;;;2.28;2.17;;;-3.60;99.90;;;;;;5008177;28;20038;-79
2022/12/17 21:07:00;;;;;;;;;;;-3.70;99.90;;;;;;5008227;28;20519;-79
2022/12/17 21:09:25;;;;;;;1.23;1.23;;;-3.70;99.90;;;;;;5037949;28;19921;-78
2022/12/17 21:11:51;;;;;;;;;;;-3.70;99.90;;;;;;5007953;28;20049;-77
2022/12/17 21:14:18;;;;;;;1.40;1.30;;;-3.70;99.90;;;;;;5019252;28;19921;-77
2022/12/17 21:16:49;;;;;;;3.10;2.88;;;-3.70;99.90;;;;;;5012464;28;20052;-77
2022/12/17 21:19:16;;;;;;;;;;;-3.70;99.90;;;;;;5015301;28;20477;-76
2022/12/17 21:21:42;;;;;;;;;;;-3.60;99.90;;;;;;5009671;28;19974;-77
2022/12/17 21:24:08;;;;;;;2.60;2.50;;;-3.60;99.90;;;;;;5016585;28;20413;-77
2022/12/17 21:26:37;;;;;;;2.65;2.55;;;-3.50;99.90;;;;;;5002108;28;20052;-77
2022/12/17 21:29:05;;;;;;;2.30;2.10;;;-3.50;99.90;;;;;;5011613;28;20172;-78
2022/12/17 21:31:36;;;;;;;0.80;0.80;;;-3.50;99.90;;;;;;5002705;28;20049;-77
2022/12/17 21:34:04;;;;;;;1.60;1.50;;;-3.60;99.90;;;;;;4993538;28;20072;-77
2022/12/17 21:36:32;;;;;;;3.03;2.83;;;-3.60;99.90;;;;;;5030161;28;20128;-77
2022/12/17 21:38:59;;;;;;;1.48;1.38;;;-3.60;99.90;;;;;;5029782;28;20141;-77
2022/12/17 21:41:27;;;;;;;0.77;0.77;;;-3.60;99.90;;;;;;5037933;28;20049;-77
2022/12/17 21:43:55;;;;;;;2.17;2.08;;;-3.60;99.90;;;;;;5004797;28;20133;-78
2022/12/17 21:46:20;;;;;;;1.00;1.00;;;-3.60;99.90;;;;;;4997859;28;20177;-78
2022/12/17 21:48:46;;;;;;;;;;;-3.70;99.90;;;;;;5030586;28;20037;-78
2022/12/17 21:51:12;;;;;;;0.70;0.70;;;-3.70;99.90;;;;;;4998365;28;20542;-77
2022/12/17 21:53:41;;;;;;;;;;;-3.80;99.90;;;;;;4997153;28;20061;-77
2022/12/17 21:56:08;;;;;;;0.60;0.60;;;-3.80;99.90;;;;;;5030791;28;20000;-77
2022/12/17 21:58:34;;;;;;;2.95;2.67;;;-3.80;99.90;;;;;;5009054;28;20098;-77
2022/12/17 22:01:07;;;;;;;;;;;-3.70;99.90;;;;;;5029162;28;20041;-77
2022/12/17 22:03:32;;;;;;;0.80;0.80;;;-3.70;99.90;;;;;;4997734;28;19929;-77
2022/12/17 22:06:03;;;;;;;;;;;-3.70;99.90;;;;;;5000104;28;20050;-77
2022/12/17 22:08:29;;;;;;;1.05;1.05;;;-3.40;99.90;;;;;;5039771;28;19925;-77
2022/12/17 22:10:58;;;;;;;1.17;1.17;;;-3.70;99.90;;;;;;5010732;28;20053;-77
2022/12/17 22:16:08;;;;;;;1.27;1.17;;;-3.80;99.90;;;;;;5043742;28;19928;-77
2022/12/17 22:18:34;;;;;;;;;;;-3.80;99.90;;;;;;5027871;28;20034;-77
2022/12/17 22:21:00;;;;;;;1.13;1.13;;;-3.80;99.90;;;;;;4986338;28;19920;-77
2022/12/17 22:23:26;;;;;;;0.80;0.80;;;-3.60;99.90;;;;;;5015880;28;20724;-77
2022/12/17 22:25:51;;;;;;;;;;;-3.80;99.90;;;;;;5034047;28;20486;-77
2022/12/17 22:28:19;;;;;;;1.23;1.17;;;-3.90;99.90;;;;;;5008701;28;19921;-77
2022/12/17 22:33:29;;;;;;;1.17;1.13;;;-3.90;99.90;;;;;;5015603;28;20085;-77
2022/12/17 22:35:58;;;;;;;;;;;-4.00;99.90;;;;;;5001465;28;20087;-76
2022/12/17 22:38:24;;;;;;;0.90;0.90;;;-4.10;99.90;;;;;;5039143;28;19924;-77
2022/12/17 22:40:49;;;;;;;;;;;-4.10;99.90;;;;;;5044689;28;20503;-77
2022/12/17 22:43:31;;;;;;;0.80;0.80;;;-4.10;99.90;;;;;;5020039;28;19921;-77
2022/12/17 22:46:01;;;;;;;0.90;0.90;;;-4.10;99.90;;;;;;5010735;28;20045;-77
2022/12/17 22:48:28;;;;;;;2.05;1.98;;;-4.00;99.90;;;;;;5028745;28;20046;-78
2022/12/17 22:50:54;;;;;;;0.70;0.70;;;-4.10;99.90;;;;;;5023438;28;20470;-76
2022/12/17 22:53:20;;;;;;;;;;;-3.70;99.90;;;;;;5017582;28;20073;-79
2022/12/17 22:55:47;;;;;;;1.10;1.10;;;-4.00;99.90;;;;;;5020990;28;20286;-78
2022/12/17 22:58:12;;;;;;;1.13;1.13;;;-4.00;99.90;;;;;;5036196;28;20068;-76
2022/12/17 23:00:38;;;;;;;;;;;-4.00;99.90;;;;;;5025507;28;20514;-78
2022/12/17 23:03:04;;;;;;;1.05;1.02;;;-4.00;99.90;;;;;;5021248;28;19924;-77
2022/12/17 23:05:30;;;;;;;;;;;-4.10;99.90;;;;;;5020520;28;20184;-78
2022/12/17 23:07:57;;;;;;;0.90;0.90;;;-4.10;99.90;;;;;;5052816;28;19926;-77
2022/12/17 23:10:24;;;;;;;0.82;0.82;;;-4.10;99.90;;;;;;5018744;28;20048;-77
2022/12/17 23:12:51;;;;;;;2.17;2.00;;;-4.10;99.90;;;;;;5017146;28;20085;-77
2022/12/17 23:15:31;;;;;;;0.70;0.70;;;-4.10;99.90;;;;;;5018149;28;20434;-77
2022/12/17 23:18:00;;;;;;;1.23;1.20;;;-4.10;99.90;;;;;;5051125;28;20037;-79
2022/12/17 23:20:29;;;;;;;0.88;0.88;;;-4.10;99.90;;;;;;5016633;28;20390;-78
2022/12/17 23:22:55;;;;;;;2.50;1.98;;;-4.10;99.90;;;;;;5006946;28;20084;-78
2022/12/17 23:25:21;;;;;;;0.80;0.80;;;-4.10;99.90;;;;;;5007077;28;20182;-77
2022/12/17 23:27:47;;;;;;;2.85;2.65;;;-5.20;99.90;;;;;;5027492;28;20055;-77
2022/12/17 23:30:14;;;;;;;;;;;-4.20;99.90;;;;;;5005028;28;20053;-78
2022/12/17 23:32:41;;;;;;;0.80;0.80;;;-4.20;99.90;;;;;;5037716;28;19980;-77
2022/12/17 23:35:07;;;;;;;0.63;0.63;;;-4.10;99.90;;;;;;5018521;28;20053;-76
2022/12/17 23:37:33;;;;;;;0.80;0.80;;;-4.10;99.90;;;;;;5024998;28;20076;-77
2022/12/17 23:40:00;;;;;;;;;;;-4.00;99.90;;;;;;5025365;28;20935;-78
2022/12/17 23:42:25;;;;;;;0.73;0.73;;;-4.00;99.90;;;;;;5014743;28;19936;-76
2022/12/17 23:44:51;;;;;;;;;;;-4.00;99.90;;;;;;5010973;28;20072;-78
2022/12/17 23:47:18;;;;;;;0.93;0.93;;;-2.40;99.90;;;;;;5027209;28;19979;-78
2022/12/17 23:49:44;;;;;;;0.93;0.93;;;-3.90;99.90;;;;;;5009402;28;22165;-78
2022/12/17 23:52:09;;;;;;;;;;;-3.90;99.90;;;;;;5026033;28;20131;-77
2022/12/17 23:54:35;;;;;;;0.80;0.80;;;-3.90;99.90;;;;;;5003901;28;19952;-77
2022/12/17 23:57:01;;;;;;;;;;;-5.50;99.90;;;;;;5012657;28;20041;-78
2022/12/17 23:59:26;;;;;;;1.08;1.05;;;-3.90;99.90;;;;;;5042229;28;19925;-77
